createdAt,value
2022-08-11T00:01:18.192Z,14.2
2022-08-11T00:06:53.206Z,14.3
2022-08-11T00:12:28.262Z,14.3
2022-08-11T00:18:03.257Z,14.3
2022-08-11T00:23:38.311Z,14.4
2022-08-11T00:29:13.266Z,14.3
2022-08-11T00:35:57.632Z,14.3
2022-08-11T00:41:29.855Z,14.3
2022-08-11T00:48:11.974Z,14.3
2022-08-11T00:53:46.959Z,14.3
2022-08-11T00:59:35.249Z,14.3
2022-08-11T01:04:56.956Z,14.3
2022-08-11T01:10:31.943Z,14.3
2022-08-11T01:16:07.020Z,14.3
2022-08-11T01:21:42.018Z,14.2
2022-08-11T01:27:18.764Z,14.2
2022-08-11T01:32:52.007Z,14.2
2022-08-11T01:38:26.983Z,14.2
2022-08-11T01:44:01.992Z,14.2
2022-08-11T01:50:07.336Z,14.1
2022-08-11T01:55:12.118Z,14.1
2022-08-11T02:00:47.239Z,14.1
2022-08-11T02:06:24.099Z,14
2022-08-11T02:11:57.197Z,14.1
2022-08-11T02:17:32.162Z,14.1
2022-08-11T02:23:07.108Z,14.2
2022-08-11T02:28:46.785Z,14.2
2022-08-11T02:34:17.258Z,14.2
2022-08-11T02:39:52.809Z,14.2
2022-08-11T02:45:27.647Z,14.2
2022-08-11T02:51:02.133Z,14.2
2022-08-11T02:56:37.117Z,14.2
2022-08-11T03:02:12.163Z,14.2
2022-08-11T03:07:47.104Z,14.2
2022-08-11T03:13:22.135Z,14.2
2022-08-11T03:18:57.142Z,14.2
2022-08-11T03:24:32.149Z,14.2
2022-08-11T03:31:13.757Z,14.2
2022-08-11T03:37:15.169Z,14.2
2022-08-11T03:42:23.767Z,14.2
2022-08-11T03:47:58.744Z,14.1
2022-08-11T03:53:33.809Z,14.1
2022-08-11T03:59:08.785Z,14.1
2022-08-11T04:04:45.161Z,14.1
2022-08-11T04:10:18.918Z,14.1
2022-08-11T04:15:53.810Z,14.1
2022-08-11T04:21:28.849Z,14.1
2022-08-11T04:27:04.976Z,14.1
2022-08-11T04:32:39.096Z,14.1
2022-08-11T04:38:13.858Z,14.1
2022-08-11T04:44:02.679Z,14.1
2022-08-11T04:49:24.256Z,14.1
2022-08-11T04:54:58.984Z,14.1
2022-08-11T05:00:38.128Z,14.2
2022-08-11T05:06:08.893Z,14.2
2022-08-11T05:11:43.890Z,14.2
2022-08-11T05:17:19.065Z,14.2
2022-08-11T05:22:55.292Z,14.3
2022-08-11T05:28:28.944Z,14.3
2022-08-11T05:35:11.087Z,14.3
2022-08-11T05:40:51.148Z,14.4
2022-08-11T05:46:21.031Z,14.5
2022-08-11T05:51:57.203Z,14.4
2022-08-11T05:57:49.426Z,14.4
2022-08-11T06:03:06.055Z,14.4
2022-08-11T06:08:41.078Z,14.4
2022-08-11T06:14:16.036Z,14.5
2022-08-11T06:19:51.175Z,14.5
2022-08-11T06:25:25.702Z,14.6
2022-08-11T06:31:00.607Z,14.6
2022-08-11T06:36:35.588Z,14.7
2022-08-11T06:42:11.089Z,14.8
2022-08-11T06:47:45.597Z,14.8
2022-08-11T06:53:20.573Z,14.9
2022-08-11T06:58:55.627Z,14.9
2022-08-11T07:04:31.177Z,15
2022-08-11T07:10:05.604Z,15
2022-08-11T07:16:10.388Z,15
2022-08-11T07:22:01.313Z,15
2022-08-11T07:26:50.724Z,15
2022-08-11T07:32:25.696Z,15
2022-08-11T07:39:07.827Z,14.9
2022-08-11T07:46:56.993Z,15
2022-08-11T07:52:32.825Z,14.9
2022-08-11T07:58:16.191Z,14.9
2022-08-11T08:03:54.404Z,15
2022-08-11T08:09:17.039Z,15.3
2022-08-11T08:14:52.016Z,15.9
2022-08-11T08:20:27.563Z,15.9
2022-08-11T08:26:01.579Z,16.1
2022-08-11T08:31:36.557Z,16.8
2022-08-11T08:37:15.886Z,18.1
2022-08-11T08:42:46.678Z,18.2
2022-08-11T08:49:28.637Z,17.6
2022-08-11T08:55:03.650Z,17.1
2022-08-11T09:01:45.871Z,16.9
2022-08-11T09:07:21.381Z,16.7
2022-08-11T09:12:55.793Z,16.6
2022-08-11T09:18:33.706Z,16.4
2022-08-11T09:24:05.865Z,16.3
2022-08-11T09:29:40.801Z,16.3
2022-08-11T09:35:15.869Z,16.1
2022-08-11T09:40:56.147Z,16.1
2022-08-11T09:46:25.831Z,16
2022-08-11T09:53:34.968Z,15.9
2022-08-11T09:58:43.601Z,15.9
2022-08-11T10:04:17.966Z,15.9
2022-08-11T10:09:52.976Z,15.9
2022-08-11T10:15:27.877Z,15.8
2022-08-11T10:21:02.496Z,15.8
2022-08-11T10:26:37.569Z,15.7
2022-08-11T10:32:12.482Z,15.7
2022-08-11T10:38:07.545Z,15.7
2022-08-11T10:44:01.668Z,15.7
2022-08-11T10:48:57.527Z,15.7
2022-08-11T10:54:32.547Z,15.7
2022-08-11T11:00:07.554Z,15.7
2022-08-11T11:06:27.502Z,15.8
2022-08-11T11:11:18.464Z,15.8
2022-08-11T11:16:52.492Z,15.9
2022-08-11T11:22:28.720Z,15.9
2022-08-11T11:28:02.576Z,15.9
2022-08-11T11:34:06.619Z,15.9
2022-08-11T11:39:12.564Z,15.9
2022-08-11T11:44:47.637Z,15.9
2022-08-11T11:50:22.608Z,16
2022-08-11T11:55:59.128Z,16
2022-08-11T12:01:32.633Z,16
2022-08-11T12:07:07.719Z,16
2022-08-11T12:12:42.653Z,15.9
2022-08-11T12:18:18.139Z,15.9
2022-08-11T12:23:52.769Z,15.9
2022-08-11T12:29:27.707Z,15.8
2022-08-11T12:35:02.599Z,15.8
2022-08-11T12:41:12.061Z,15.8
2022-08-11T12:46:13.587Z,15.8
2022-08-11T12:52:11.694Z,15.8
2022-08-11T12:58:29.734Z,15.8
2022-08-11T13:04:04.737Z,15.8
2022-08-11T13:09:39.805Z,15.7
2022-08-11T13:15:14.755Z,15.7
2022-08-11T13:20:49.836Z,15.6
2022-08-11T13:26:47.395Z,15.6
2022-08-11T13:32:00.048Z,15.7
2022-08-11T13:38:19.314Z,15.7
2022-08-11T13:43:14.733Z,15.6
2022-08-11T13:48:44.449Z,15.6
2022-08-11T13:54:19.471Z,15.6
2022-08-11T13:59:54.519Z,15.6
2022-08-11T14:05:29.456Z,15.6
2022-08-11T14:11:04.363Z,15.6
2022-08-11T14:16:39.400Z,15.6
2022-08-11T14:22:14.393Z,15.6
2022-08-11T14:28:35.069Z,15.6
2022-08-11T14:33:24.349Z,15.7
2022-08-11T14:38:59.476Z,15.7
2022-08-11T14:44:34.589Z,15.8
2022-08-11T14:50:11.508Z,15.8
2022-08-11T14:55:44.497Z,15.9
2022-08-11T15:01:19.454Z,15.9
2022-08-11T15:06:54.441Z,15.9
2022-08-11T15:12:33.573Z,15.9
2022-08-11T15:18:05.086Z,15.8
2022-08-11T15:23:39.628Z,15.8
2022-08-11T15:29:14.993Z,15.8
2022-08-11T15:34:49.603Z,15.8
2022-08-11T15:40:31.437Z,15.8
2022-08-11T15:45:59.564Z,15.8
2022-08-11T15:51:34.449Z,15.9
2022-08-11T15:57:09.591Z,15.8
2022-08-11T16:02:44.459Z,15.8
2022-08-11T16:08:26.772Z,15.8
2022-08-11T16:15:03.904Z,15.7
2022-08-11T16:20:36.708Z,15.8
2022-08-11T16:27:08.003Z,15.7
2022-08-11T16:31:46.744Z,15.7
2022-08-11T16:37:21.712Z,15.6
2022-08-11T16:43:06.387Z,15.6
2022-08-11T16:48:36.663Z,15.6
2022-08-11T16:54:06.722Z,15.5
2022-08-11T16:59:41.733Z,15.5
2022-08-11T17:05:16.766Z,15.3
2022-08-11T17:10:55.393Z,15.2
2022-08-11T17:16:27.073Z,15
2022-08-11T17:23:08.320Z,15
2022-08-11T17:28:43.303Z,14.9
2022-08-11T17:34:18.907Z,14.9
2022-08-11T17:39:53.534Z,14.9
2022-08-11T17:45:28.325Z,14.8
2022-08-11T17:51:03.339Z,14.8
2022-08-11T17:56:38.708Z,14.8
2022-08-11T18:02:13.517Z,14.8
2022-08-11T18:07:48.315Z,14.8
2022-08-11T18:13:23.563Z,14.8
2022-08-11T18:18:58.501Z,14.7
2022-08-11T18:24:33.545Z,14.7
2022-08-11T18:30:08.356Z,14.7
2022-08-11T18:35:43.459Z,14.7
2022-08-11T18:41:18.384Z,14.6
2022-08-11T18:46:53.454Z,14.4
2022-08-11T18:52:28.555Z,14.3
2022-08-11T18:58:03.399Z,14.2
2022-08-11T19:03:43.318Z,14.2
2022-08-11T19:09:13.547Z,14.2
2022-08-11T19:14:48.549Z,14.3
2022-08-11T19:20:23.523Z,14.4
2022-08-11T19:25:58.581Z,14.4
2022-08-11T19:31:33.615Z,14.3
2022-08-11T19:37:08.631Z,14.2
2022-08-11T19:42:43.531Z,14
2022-08-11T19:48:31.834Z,14
2022-08-11T19:53:53.512Z,13.9
2022-08-11T19:59:28.528Z,13.8
2022-08-11T20:05:03.564Z,13.7
2022-08-11T20:10:38.633Z,13.6
2022-08-11T20:16:13.564Z,13.7
2022-08-11T20:21:48.581Z,13.7
2022-08-11T20:27:24.801Z,13.7
2022-08-11T20:32:58.574Z,13.7
2022-08-11T20:38:33.589Z,13.7
2022-08-11T20:44:09.853Z,13.7
2022-08-11T20:49:51.433Z,13.6
2022-08-11T20:55:19.326Z,13.6
2022-08-11T21:02:00.276Z,13.7
2022-08-11T21:07:35.220Z,13.7
2022-08-11T21:13:25.546Z,13.7
2022-08-11T21:18:45.155Z,13.7
2022-08-11T21:24:20.298Z,13.8
2022-08-11T21:29:55.241Z,13.7
2022-08-11T21:35:30.390Z,13.6
2022-08-11T21:41:14.494Z,13.6
2022-08-11T21:47:47.401Z,13.6
2022-08-11T21:53:22.319Z,13.6
2022-08-11T21:58:57.340Z,13.7
2022-08-11T22:04:32.387Z,13.7
2022-08-11T22:10:27.527Z,13.7
2022-08-11T22:15:42.383Z,13.6
2022-08-11T22:21:56.535Z,13.6
2022-08-11T22:26:52.381Z,13.6
2022-08-11T22:32:27.358Z,13.6
2022-08-11T22:38:02.366Z,13.6
2022-08-11T22:43:37.371Z,13.6
2022-08-11T22:49:12.429Z,13.6
2022-08-11T22:54:48.028Z,13.6
2022-08-11T23:00:22.479Z,13.6
2022-08-11T23:05:57.433Z,13.5
2022-08-11T23:12:07.229Z,13.5
2022-08-11T23:18:14.049Z,13.5
2022-08-11T23:23:49.059Z,13.5
2022-08-11T23:29:24.083Z,13.5
2022-08-11T23:47:16.149Z,13.3
2022-08-11T23:52:52.216Z,13.3
2022-08-11T23:58:26.732Z,13.3
